Flight Track Log - Related Links

Times and Time Zones

All times are in EDT time to prevent confusion due to time zone crossing. See the EGF4673 flight status page for this flight to view local times or setup timezone preferences in your user account.


Time Position Orientation Groundspeed Altitude Reporting Facility
EDT Latitude Longitude Course Direction KTS MPH feet Rate Location/Type
Mon 11:36:26 AM 43.6500 -79.6167 55° Northeast 10 12 600  Level Toronto Center
Mon 11:37:26 AM 43.6667 -79.5833 47° Northeast 150 173 1,100 1,850 Climbing Toronto Center
Mon 11:38:26 AM 43.7000 -79.5333 90° East 190 219 4,300 2,900 Climbing Toronto Center
Mon 11:39:26 AM 43.7000 -79.4333 125° Southeast 270 311 6,900 2,650 Climbing Toronto Center
Mon 11:40:26 AM 43.6500 -79.3333 125° Southeast 290 334 9,600 2,350 Climbing Toronto Center
Mon 11:41:26 AM 43.6000 -79.2333 130° Southeast 320 368 11,600 2,200 Climbing Toronto Center
Mon 11:42:26 AM 43.5500 -79.1500 128° Southeast 340 391 14,000 2,100 Climbing Toronto Center
Mon 11:43:26 AM 43.4833 -79.0333 128° Southeast 360 414 15,800 1,750 Climbing Toronto Center
Mon 11:44:26 AM 43.4167 -78.9167 121° Southeast 390 449 17,500 1,550 Climbing Toronto Center
Mon 11:45:26 AM 43.3500 -78.7667 124° Southeast 420 483 18,900 1,450 Climbing Toronto Center
Mon 11:46:26 AM 43.2833 -78.6333 124° Southeast 440 506 20,400 1,472 Climbing Toronto Center
Mon 11:47:12 AM 43.2428 -78.5514 123° Southeast 437 503 21,500 1,358 Climbing Cleveland Center
Mon 11:48:12 AM 43.1711 -78.4028 125° Southeast 457 526 22,800 1,200 Climbing Cleveland Center
Mon 11:49:12 AM 43.1042 -78.2714 124° Southeast 463 533 23,900 1,200 Climbing Cleveland Center
Mon 11:50:12 AM 43.0300 -78.1208 125° Southeast 474 545 25,200 1,350 Climbing Cleveland Center
Mon 11:51:12 AM 42.9539 -77.9706 125° Southeast 474 545 26,600 1,250 Climbing Cleveland Center
Mon 11:52:12 AM 42.8775 -77.8208 105° East 480 552 27,700 600 Climbing Cleveland Center
Mon 11:55:12 AM 42.7628 -77.2631 102° East 504 580 29,000 292 Climbing Cleveland Center
Mon 11:56:39 AM 42.7231 -77.0136 102° East 516 594 29,000  Level Boston Center
Mon 11:57:39 AM 42.6931 -76.8278 103° East 511 588 29,000  Level Boston Center
Mon 11:58:39 AM 42.6625 -76.6419 100° East 506 582 29,000 -250 Level Boston Center
Mon 11:59:39 AM 42.6381 -76.4539 101° East 501 577 28,500 -500 Descending Boston Center
Mon 12:00:39 PM 42.6111 -76.2658 100° East 501 577 28,000 -250 Descending Boston Center
Mon 12:01:39 PM 42.5858 -76.0811 101° East 501 577 28,000  Level Boston Center
Mon 12:02:39 PM 42.5586 -75.8878 101° East 507 583 28,000  Level Boston Center
Mon 12:03:39 PM 42.5328 -75.7003 101° East 507 583 28,000 -450 Level Boston Center
Mon 12:04:39 PM 42.5069 -75.5131 102° East 507 583 27,100 -1,000 Descending Boston Center
Mon 12:05:39 PM 42.4783 -75.3256 110° East 507 583 26,000 -1,150 Descending Boston Center
Mon 12:06:39 PM 42.4306 -75.1461 116° Southeast 507 583 24,800 -1,300 Descending Boston Center
Mon 12:07:39 PM 42.3700 -74.9778 117° Southeast 501 577 23,400 -1,350 Descending Boston Center
Mon 12:08:39 PM 42.3089 -74.8153 117° Southeast 490 564 22,100 -1,300 Descending Boston Center
Mon 12:09:39 PM 42.2494 -74.6558 117° Southeast 484 557 20,800 -1,300 Descending Boston Center
Mon 12:10:39 PM 42.1900 -74.4997 116° Southeast 477 549 19,500 -1,350 Descending Boston Center
Mon 12:11:39 PM 42.1283 -74.3297 128° Southeast 471 542 18,100 -750 Descending Boston Center
Mon 12:12:39 PM 42.0594 -74.2131 143° Southeast 454 522 18,000 -50 Descending Boston Center
Mon 12:13:39 PM 41.9711 -74.1239 144° Southeast 439 505 18,000 -50 Level Boston Center
Mon 12:14:39 PM 41.8497 -74.0036 143° Southeast 455 524 17,900 -850 Descending Boston Center
Mon 12:15:39 PM 41.7614 -73.9150 153° Southeast 455 524 16,300 -2,000 Descending Boston Center
Mon 12:16:39 PM 41.6478 -73.8375 188° South 443 510 13,900 -2,261 Descending Boston Center
Mon 12:17:57 PM 41.5000 -73.8667 173° South 395 455 11,100 -1,739 Descending New York TRACON
Mon 12:18:57 PM 41.4000 -73.8500 143° Southeast 344 396 9,900 -1,000 Descending New York TRACON
Mon 12:19:57 PM 41.3333 -73.7833 151° Southeast 307 353 9,100 -750 Descending New York TRACON
Mon 12:20:57 PM 41.2667 -73.7333 143° Southeast 302 348 8,400 -1,000 Descending New York TRACON
Mon 12:21:57 PM 41.2000 -73.6667 180° South 287 330 7,100 -1,200 Descending New York TRACON
Mon 12:23:02 PM 41.1167 -73.6667 180° South 242 278 5,900 -1,056 Descending New York TRACON
Mon 12:24:02 PM 41.0500 -73.6667 207° Southwest 230 265 4,900 -1,000 Descending New York TRACON
Mon 12:25:02 PM 41.0000 -73.7000 207° Southwest 221 254 3,900 -900 Descending New York TRACON
Mon 12:26:02 PM 40.9500 -73.7333 207° Southwest 205 236 3,100 -800 Descending New York TRACON

Login

Don't have an account? Register now (free) for customized features, flight alerts, and more!